sensor_id;sensor_type;location;lat;lon;timestamp;pressure;altitude;pressure_sealevel;temperature;humidity
74230;BME280;62589;12.568;99.958;2023-12-20T00:00:17;101032.13;;;33.83;43.09
74230;BME280;62589;12.568;99.958;2023-12-20T00:02:44;101032.94;;;33.83;43.13
74230;BME280;62589;12.568;99.958;2023-12-20T00:05:14;101036.94;;;33.86;43.08
74230;BME280;62589;12.568;99.958;2023-12-20T00:07:40;101051.28;;;33.88;43.23
74230;BME280;62589;12.568;99.958;2023-12-20T00:10:07;101044.91;;;33.91;43.49
74230;BME280;62589;12.568;99.958;2023-12-20T00:12:33;101053.28;;;33.94;43.11
74230;BME280;62589;12.568;99.958;2023-12-20T00:15:00;101052.50;;;33.97;42.86
74230;BME280;62589;12.568;99.958;2023-12-20T00:17:26;101057.72;;;34.02;42.95
74230;BME280;62589;12.568;99.958;2023-12-20T00:19:52;101063.31;;;34.06;43.15
74230;BME280;62589;12.568;99.958;2023-12-20T00:22:19;101067.69;;;34.10;43.32
74230;BME280;62589;12.568;99.958;2023-12-20T00:24:46;101075.69;;;34.16;43.27
74230;BME280;62589;12.568;99.958;2023-12-20T00:27:12;101083.28;;;34.22;43.23
74230;BME280;62589;12.568;99.958;2023-12-20T00:29:39;101087.34;;;34.28;42.73
74230;BME280;62589;12.568;99.958;2023-12-20T00:32:05;101090.94;;;34.32;43.01
74230;BME280;62589;12.568;99.958;2023-12-20T00:34:32;101100.53;;;34.38;42.63
74230;BME280;62589;12.568;99.958;2023-12-20T00:36:58;101103.31;;;34.42;42.63
74230;BME280;62589;12.568;99.958;2023-12-20T00:39:25;101103.75;;;34.51;42.48
74230;BME280;62589;12.568;99.958;2023-12-20T00:41:51;101104.19;;;34.57;42.61
74230;BME280;62589;12.568;99.958;2023-12-20T00:44:18;101103.03;;;34.65;42.50
74230;BME280;62589;12.568;99.958;2023-12-20T00:46:44;101114.97;;;34.72;42.76
74230;BME280;62589;12.568;99.958;2023-12-20T00:49:11;101116.25;;;34.78;42.12
74230;BME280;62589;12.568;99.958;2023-12-20T00:51:38;101113.47;;;34.86;42.32
74230;BME280;62589;12.568;99.958;2023-12-20T00:54:04;101121.84;;;34.93;42.39
74230;BME280;62589;12.568;99.958;2023-12-20T00:56:31;101122.69;;;35.00;42.38
74230;BME280;62589;12.568;99.958;2023-12-20T00:58:57;101131.47;;;35.09;41.95
74230;BME280;62589;12.568;99.958;2023-12-20T01:01:24;101141.44;;;35.18;42.02
74230;BME280;62589;12.568;99.958;2023-12-20T01:03:50;101139.09;;;35.27;41.54
74230;BME280;62589;12.568;99.958;2023-12-20T01:06:17;101131.94;;;35.33;41.87
74230;BME280;62589;12.568;99.958;2023-12-20T01:08:43;101133.13;;;35.42;41.76
74230;BME280;62589;12.568;99.958;2023-12-20T01:11:10;101142.72;;;35.52;41.54
74230;BME280;62589;12.568;99.958;2023-12-20T01:13:36;101147.50;;;35.59;41.52
74230;BME280;62589;12.568;99.958;2023-12-20T01:16:03;101148.31;;;35.66;41.24
74230;BME280;62589;12.568;99.958;2023-12-20T01:18:29;101157.91;;;35.72;41.17
74230;BME280;62589;12.568;99.958;2023-12-20T01:20:56;101156.31;;;35.82;41.04
74230;BME280;62589;12.568;99.958;2023-12-20T01:23:27;101162.69;;;35.90;41.08
74230;BME280;62589;12.568;99.958;2023-12-20T01:25:53;101165.88;;;35.99;40.75
74230;BME280;62589;12.568;99.958;2023-12-20T01:28:20;101163.47;;;36.04;40.58
74230;BME280;62589;12.568;99.958;2023-12-20T01:30:46;101161.47;;;36.15;40.39
74230;BME280;62589;12.568;99.958;2023-12-20T01:33:13;101165.84;;;36.24;40.58
74230;BME280;62589;12.568;99.958;2023-12-20T01:35:39;101166.66;;;36.31;40.36
74230;BME280;62589;12.568;99.958;2023-12-20T01:38:06;101162.63;;;36.39;40.51
74230;BME280;62589;12.568;99.958;2023-12-20T01:40:32;101165.78;;;36.48;40.21
74230;BME280;62589;12.568;99.958;2023-12-20T01:43:00;101167.78;;;36.55;40.30
74230;BME280;62589;12.568;99.958;2023-12-20T01:45:27;101167.34;;;36.64;39.77
74230;BME280;62589;12.568;99.958;2023-12-20T01:47:55;101166.94;;;36.72;39.96
74230;BME280;62589;12.568;99.958;2023-12-20T01:50:22;101167.28;;;36.81;40.19
74230;BME280;62589;12.568;99.958;2023-12-20T01:52:49;101159.66;;;36.89;39.85
74230;BME280;62589;12.568;99.958;2023-12-20T01:55:21;101165.97;;;37.00;40.03
74230;BME280;62589;12.568;99.958;2023-12-20T01:57:47;101161.56;;;37.06;40.15
74230;BME280;62589;12.568;99.958;2023-12-20T02:00:15;101167.91;;;37.17;40.22
74230;BME280;62589;12.568;99.958;2023-12-20T02:02:41;101165.88;;;37.25;40.01
74230;BME280;62589;12.568;99.958;2023-12-20T02:05:10;101171.03;;;37.34;39.43
74230;BME280;62589;12.568;99.958;2023-12-20T02:07:37;101172.53;;;37.42;40.03
74230;BME280;62589;12.568;99.958;2023-12-20T02:10:04;101172.50;;;37.49;39.85
74230;BME280;62589;12.568;99.958;2023-12-20T02:12:30;101163.69;;;37.50;39.90
74230;BME280;62589;12.568;99.958;2023-12-20T02:14:57;101167.63;;;37.60;39.65
74230;BME280;62589;12.568;99.958;2023-12-20T02:17:23;101162.78;;;37.64;40.00
74230;BME280;62589;12.568;99.958;2023-12-20T02:19:50;101166.31;;;37.75;39.84
74230;BME280;62589;12.568;99.958;2023-12-20T02:22:16;101157.41;;;37.84;39.86
74230;BME280;62589;12.568;99.958;2023-12-20T02:24:43;101158.19;;;37.88;39.53
74230;BME280;62589;12.568;99.958;2023-12-20T02:27:09;101157.34;;;37.95;39.13
74230;BME280;62589;12.568;99.958;2023-12-20T02:29:36;101157.63;;;38.04;38.74
74230;BME280;62589;12.568;99.958;2023-12-20T02:32:03;101156.81;;;38.10;39.49
74230;BME280;62589;12.568;99.958;2023-12-20T02:34:29;101154.75;;;38.14;38.96
74230;BME280;62589;12.568;99.958;2023-12-20T02:36:56;101150.72;;;38.19;39.22
74230;BME280;62589;12.568;99.958;2023-12-20T02:39:22;101163.41;;;38.27;38.52
74230;BME280;62589;12.568;99.958;2023-12-20T02:41:49;101155.34;;;38.33;38.70
74230;BME280;62589;12.568;99.958;2023-12-20T02:44:15;101147.25;;;38.42;38.74
74230;BME280;62589;12.568;99.958;2023-12-20T02:46:42;101151.56;;;38.46;38.93
74230;BME280;62589;12.568;99.958;2023-12-20T02:49:08;101152.34;;;38.50;38.66
74230;BME280;62589;12.568;99.958;2023-12-20T02:51:35;101154.31;;;38.57;38.69
74230;BME280;62589;12.568;99.958;2023-12-20T02:54:04;101157.91;;;38.58;38.37
74230;BME280;62589;12.568;99.958;2023-12-20T02:56:32;101158.66;;;38.62;38.15
74230;BME280;62589;12.568;99.958;2023-12-20T02:58:59;101145.81;;;38.64;38.24
74230;BME280;62589;12.568;99.958;2023-12-20T03:01:27;101152.91;;;38.72;38.26
74230;BME280;62589;12.568;99.958;2023-12-20T03:03:53;101153.59;;;38.80;38.35
74230;BME280;62589;12.568;99.958;2023-12-20T03:06:20;101154.78;;;38.82;38.74
74230;BME280;62589;12.568;99.958;2023-12-20T03:08:46;101149.47;;;38.88;38.65
74230;BME280;62589;12.568;99.958;2023-12-20T03:11:13;101147.00;;;38.94;38.29
74230;BME280;62589;12.568;99.958;2023-12-20T03:13:39;101149.34;;;38.99;38.68
74230;BME280;62589;12.568;99.958;2023-12-20T03:16:13;101153.34;;;39.01;38.50
74230;BME280;62589;12.568;99.958;2023-12-20T03:18:40;101156.41;;;39.10;38.30
74230;BME280;62589;12.568;99.958;2023-12-20T03:21:06;101152.00;;;39.09;38.44
74230;BME280;62589;12.568;99.958;2023-12-20T03:23:35;101149.47;;;39.18;38.25
74230;BME280;62589;12.568;99.958;2023-12-20T03:26:02;101142.59;;;39.23;38.19
74230;BME280;62589;12.568;99.958;2023-12-20T03:28:29;101144.13;;;39.28;38.50
74230;BME280;62589;12.568;99.958;2023-12-20T03:30:56;101137.16;;;39.36;38.25
74230;BME280;62589;12.568;99.958;2023-12-20T03:33:22;101142.31;;;39.41;38.02
74230;BME280;62589;12.568;99.958;2023-12-20T03:35:49;101128.19;;;39.48;38.00
74230;BME280;62589;12.568;99.958;2023-12-20T03:38:15;101126.88;;;39.53;37.89
74230;BME280;62589;12.568;99.958;2023-12-20T03:40:42;101129.25;;;39.54;37.58
74230;BME280;62589;12.568;99.958;2023-12-20T03:43:08;101112.34;;;39.58;37.22
74230;BME280;62589;12.568;99.958;2023-12-20T03:45:35;101110.31;;;39.58;37.60
74230;BME280;62589;12.568;99.958;2023-12-20T03:48:01;101114.66;;;39.63;37.35
74230;BME280;62589;12.568;99.958;2023-12-20T03:50:28;101106.13;;;39.70;37.37
74230;BME280;62589;12.568;99.958;2023-12-20T03:52:55;101113.25;;;39.74;37.16
74230;BME280;62589;12.568;99.958;2023-12-20T03:55:21;101102.53;;;39.69;37.28
74230;BME280;62589;12.568;99.958;2023-12-20T03:57:48;101103.22;;;39.73;37.20
74230;BME280;62589;12.568;99.958;2023-12-20T04:00:15;101105.91;;;39.80;37.54
74230;BME280;62589;12.568;99.958;2023-12-20T04:02:42;101100.28;;;39.80;37.11
74230;BME280;62589;12.568;99.958;2023-12-20T04:05:09;101097.47;;;39.80;37.30
74230;BME280;62589;12.568;99.958;2023-12-20T04:07:36;101089.41;;;39.82;37.26
74230;BME280;62589;12.568;99.958;2023-12-20T04:10:03;101087.75;;;39.85;37.38
74230;BME280;62589;12.568;99.958;2023-12-20T04:12:30;101084.81;;;39.92;37.75
74230;BME280;62589;12.568;99.958;2023-12-20T04:14:57;101088.72;;;39.98;37.70
74230;BME280;62589;12.568;99.958;2023-12-20T04:17:24;101081.47;;;40.01;37.41
74230;BME280;62589;12.568;99.958;2023-12-20T04:19:51;101081.03;;;40.02;37.31
74230;BME280;62589;12.568;99.958;2023-12-20T04:22:18;101078.50;;;40.08;37.41
74230;BME280;62589;12.568;99.958;2023-12-20T04:24:45;101074.84;;;40.11;37.37
74230;BME280;62589;12.568;99.958;2023-12-20T04:27:12;101065.50;;;40.14;37.16
74230;BME280;62589;12.568;99.958;2023-12-20T04:29:38;101067.09;;;40.15;37.22
74230;BME280;62589;12.568;99.958;2023-12-20T04:32:05;101061.41;;;40.18;37.48
74230;BME280;62589;12.568;99.958;2023-12-20T04:34:31;101055.72;;;40.22;37.33
74230;BME280;62589;12.568;99.958;2023-12-20T04:36:58;101051.25;;;40.25;37.04
74230;BME280;62589;12.568;99.958;2023-12-20T04:39:24;101041.16;;;40.27;36.92
74230;BME280;62589;12.568;99.958;2023-12-20T04:41:51;101042.72;;;40.28;36.98
74230;BME280;62589;12.568;99.958;2023-12-20T04:44:17;101034.28;;;40.28;36.87
74230;BME280;62589;12.568;99.958;2023-12-20T04:46:44;101033.47;;;40.31;37.06
74230;BME280;62589;12.568;99.958;2023-12-20T04:49:10;101023.25;;;40.37;37.03
74230;BME280;62589;12.568;99.958;2023-12-20T04:51:37;101021.59;;;40.40;37.09
74230;BME280;62589;12.568;99.958;2023-12-20T04:54:04;101011.13;;;40.40;37.34
74230;BME280;62589;12.568;99.958;2023-12-20T04:56:30;101006.22;;;40.44;37.32
74230;BME280;62589;12.568;99.958;2023-12-20T04:58:57;101004.84;;;40.53;37.31
74230;BME280;62589;12.568;99.958;2023-12-20T05:01:23;100997.97;;;40.53;37.00
74230;BME280;62589;12.568;99.958;2023-12-20T05:03:49;100995.16;;;40.53;36.95
74230;BME280;62589;12.568;99.958;2023-12-20T05:06:16;100985.84;;;40.57;37.07
74230;BME280;62589;12.568;99.958;2023-12-20T05:08:42;100993.75;;;40.62;36.98
74230;BME280;62589;12.568;99.958;2023-12-20T05:11:09;100982.06;;;40.63;37.10
74230;BME280;62589;12.568;99.958;2023-12-20T05:13:36;100979.19;;;40.67;37.00
74230;BME280;62589;12.568;99.958;2023-12-20T05:16:02;100977.94;;;40.68;37.13
74230;BME280;62589;12.568;99.958;2023-12-20T05:18:29;100968.97;;;40.73;37.12
74230;BME280;62589;12.568;99.958;2023-12-20T05:20:55;100967.00;;;40.73;36.90
74230;BME280;62589;12.568;99.958;2023-12-20T05:23:21;100957.44;;;40.67;36.53
74230;BME280;62589;12.568;99.958;2023-12-20T05:25:48;100949.72;;;40.71;36.89
74230;BME280;62589;12.568;99.958;2023-12-20T05:28:15;100955.25;;;40.75;37.17
74230;BME280;62589;12.568;99.958;2023-12-20T05:30:42;100940.66;;;40.80;36.75
74230;BME280;62589;12.568;99.958;2023-12-20T05:33:08;100937.59;;;40.74;35.70
74230;BME280;62589;12.568;99.958;2023-12-20T05:35:35;100931.94;;;40.74;35.35
74230;BME280;62589;12.568;99.958;2023-12-20T05:38:01;100934.78;;;40.74;35.25
74230;BME280;62589;12.568;99.958;2023-12-20T05:40:28;100934.25;;;40.79;35.36
74230;BME280;62589;12.568;99.958;2023-12-20T05:42:54;100929.94;;;40.75;35.31
74230;BME280;62589;12.568;99.958;2023-12-20T05:45:21;100929.84;;;40.78;35.66
74230;BME280;62589;12.568;99.958;2023-12-20T05:47:47;100925.38;;;40.81;35.18
74230;BME280;62589;12.568;99.958;2023-12-20T05:50:13;100919.28;;;40.82;34.92
74230;BME280;62589;12.568;99.958;2023-12-20T05:52:40;100917.28;;;40.83;34.34
74230;BME280;62589;12.568;99.958;2023-12-20T05:55:07;100909.69;;;40.80;34.32
74230;BME280;62589;12.568;99.958;2023-12-20T05:57:33;100908.13;;;40.79;34.46
74230;BME280;62589;12.568;99.958;2023-12-20T06:00:00;100897.31;;;40.77;34.23
74230;BME280;62589;12.568;99.958;2023-12-20T06:02:31;100892.09;;;40.76;34.16
74230;BME280;62589;12.568;99.958;2023-12-20T06:04:58;100885.78;;;40.72;33.77
74230;BME280;62589;12.568;99.958;2023-12-20T06:07:24;100876.09;;;40.73;33.96
74230;BME280;62589;12.568;99.958;2023-12-20T06:09:51;100877.25;;;40.75;34.26
74230;BME280;62589;12.568;99.958;2023-12-20T06:12:17;100877.59;;;40.77;34.05
74230;BME280;62589;12.568;99.958;2023-12-20T06:14:44;100867.22;;;40.74;33.95
74230;BME280;62589;12.568;99.958;2023-12-20T06:17:10;100865.66;;;40.73;33.85
74230;BME280;62589;12.568;99.958;2023-12-20T06:19:36;100856.31;;;40.76;34.06
74230;BME280;62589;12.568;99.958;2023-12-20T06:22:03;100851.72;;;40.66;33.91
74230;BME280;62589;12.568;99.958;2023-12-20T06:24:29;100854.81;;;40.72;33.70
74230;BME280;62589;12.568;99.958;2023-12-20T06:26:56;100848.03;;;40.69;34.10
74230;BME280;62589;12.568;99.958;2023-12-20T06:29:22;100832.47;;;40.65;33.84
74230;BME280;62589;12.568;99.958;2023-12-20T06:31:48;100837.56;;;40.70;33.80
74230;BME280;62589;12.568;99.958;2023-12-20T06:34:15;100826.41;;;40.66;33.56
74230;BME280;62589;12.568;99.958;2023-12-20T06:36:41;100824.72;;;40.69;33.47
74230;BME280;62589;12.568;99.958;2023-12-20T06:39:07;100830.34;;;40.69;33.67
74230;BME280;62589;12.568;99.958;2023-12-20T06:41:34;100823.94;;;40.68;33.90
74230;BME280;62589;12.568;99.958;2023-12-20T06:44:01;100827.91;;;40.71;33.58
74230;BME280;62589;12.568;99.958;2023-12-20T06:46:27;100825.09;;;40.71;34.08
74230;BME280;62589;12.568;99.958;2023-12-20T06:48:53;100823.94;;;40.68;33.93
74230;BME280;62589;12.568;99.958;2023-12-20T06:51:20;100813.81;;;40.71;34.03
74230;BME280;62589;12.568;99.958;2023-12-20T06:53:46;100816.19;;;40.72;34.25
74230;BME280;62589;12.568;99.958;2023-12-20T06:56:12;100820.16;;;40.75;34.51
74230;BME280;62589;12.568;99.958;2023-12-20T06:58:39;100810.91;;;40.74;34.54
74230;BME280;62589;12.568;99.958;2023-12-20T07:01:05;100810.16;;;40.74;34.55
74230;BME280;62589;12.568;99.958;2023-12-20T07:03:36;100818.13;;;40.75;34.75
74230;BME280;62589;12.568;99.958;2023-12-20T07:06:03;100811.72;;;40.75;34.51
74230;BME280;62589;12.568;99.958;2023-12-20T07:08:29;100807.66;;;40.76;34.70
74230;BME280;62589;12.568;99.958;2023-12-20T07:10:56;100799.56;;;40.78;34.74
74230;BME280;62589;12.568;99.958;2023-12-20T07:13:22;100796.41;;;40.76;35.14
74230;BME280;62589;12.568;99.958;2023-12-20T07:15:49;100785.50;;;40.78;34.91
74230;BME280;62589;12.568;99.958;2023-12-20T07:18:15;100789.97;;;40.75;34.72
74230;BME280;62589;12.568;99.958;2023-12-20T07:20:42;100789.19;;;40.75;34.44
74230;BME280;62589;12.568;99.958;2023-12-20T07:23:09;100788.31;;;40.78;34.88
74230;BME280;62589;12.568;99.958;2023-12-20T07:25:35;100785.59;;;40.74;34.81
74230;BME280;62589;12.568;99.958;2023-12-20T07:28:02;100779.19;;;40.74;34.90
74230;BME280;62589;12.568;99.958;2023-12-20T07:30:28;100780.31;;;40.76;35.01
74230;BME280;62589;12.568;99.958;2023-12-20T07:32:55;100784.34;;;40.75;35.31
74230;BME280;62589;12.568;99.958;2023-12-20T07:35:21;100772.31;;;40.75;34.96
74230;BME280;62589;12.568;99.958;2023-12-20T07:37:47;100769.13;;;40.73;34.68
74230;BME280;62589;12.568;99.958;2023-12-20T07:40:14;100768.44;;;40.69;35.42
74230;BME280;62589;12.568;99.958;2023-12-20T07:42:42;100770.81;;;40.70;35.33
74230;BME280;62589;12.568;99.958;2023-12-20T07:45:09;100763.69;;;40.66;35.24
74230;BME280;62589;12.568;99.958;2023-12-20T07:47:37;100762.09;;;40.65;35.18
74230;BME280;62589;12.568;99.958;2023-12-20T07:50:03;100768.63;;;40.62;35.18
74230;BME280;62589;12.568;99.958;2023-12-20T07:52:30;100750.16;;;40.61;34.91
74230;BME280;62589;12.568;99.958;2023-12-20T07:54:56;100755.00;;;40.60;34.94
74230;BME280;62589;12.568;99.958;2023-12-20T07:57:23;100748.56;;;40.60;34.82
74230;BME280;62589;12.568;99.958;2023-12-20T07:59:50;100744.63;;;40.57;35.05
74230;BME280;62589;12.568;99.958;2023-12-20T08:02:16;100748.78;;;40.53;34.76
74230;BME280;62589;12.568;99.958;2023-12-20T08:04:43;100739.09;;;40.53;34.58
74230;BME280;62589;12.568;99.958;2023-12-20T08:07:09;100735.59;;;40.49;34.62
74230;BME280;62589;12.568;99.958;2023-12-20T08:09:35;100733.94;;;40.52;34.59
74230;BME280;62589;12.568;99.958;2023-12-20T08:12:02;100733.31;;;40.44;34.55
74230;BME280;62589;12.568;99.958;2023-12-20T08:14:29;100729.72;;;40.44;34.24
74230;BME280;62589;12.568;99.958;2023-12-20T08:16:55;100728.91;;;40.43;34.24
74230;BME280;62589;12.568;99.958;2023-12-20T08:19:22;100728.91;;;40.43;34.40
74230;BME280;62589;12.568;99.958;2023-12-20T08:21:48;100722.50;;;40.43;34.43
74230;BME280;62589;12.568;99.958;2023-12-20T08:24:14;100728.66;;;40.38;34.40
74230;BME280;62589;12.568;99.958;2023-12-20T08:26:41;100722.25;;;40.37;34.46
74230;BME280;62589;12.568;99.958;2023-12-20T08:29:07;100724.72;;;40.35;34.13
74230;BME280;62589;12.568;99.958;2023-12-20T08:31:34;100725.94;;;40.34;34.32
74230;BME280;62589;12.568;99.958;2023-12-20T08:34:00;100721.09;;;40.35;34.04
74230;BME280;62589;12.568;99.958;2023-12-20T08:36:26;100716.38;;;40.32;34.18
74230;BME280;62589;12.568;99.958;2023-12-20T08:38:53;100712.41;;;40.29;33.83
74230;BME280;62589;12.568;99.958;2023-12-20T08:41:21;100717.25;;;40.29;33.69
74230;BME280;62589;12.568;99.958;2023-12-20T08:43:47;100710.81;;;40.28;33.95
74230;BME280;62589;12.568;99.958;2023-12-20T08:46:14;100713.28;;;40.26;34.30
74230;BME280;62589;12.568;99.958;2023-12-20T08:48:41;100716.19;;;40.23;33.74
74230;BME280;62589;12.568;99.958;2023-12-20T08:51:07;100725.84;;;40.22;33.42
74230;BME280;62589;12.568;99.958;2023-12-20T08:53:34;100730.69;;;40.21;33.61
74230;BME280;62589;12.568;99.958;2023-12-20T08:56:00;100719.09;;;40.19;33.63
74230;BME280;62589;12.568;99.958;2023-12-20T08:58:28;100720.75;;;40.16;34.02
74230;BME280;62589;12.568;99.958;2023-12-20T09:00:54;100715.13;;;40.16;33.68
74230;BME280;62589;12.568;99.958;2023-12-20T09:03:21;100726.81;;;40.15;33.72
74230;BME280;62589;12.568;99.958;2023-12-20T09:05:47;100723.22;;;40.14;33.42
74230;BME280;62589;12.568;99.958;2023-12-20T09:08:13;100726.03;;;40.14;33.58
74230;BME280;62589;12.568;99.958;2023-12-20T09:10:40;100723.34;;;40.11;33.13
74230;BME280;62589;12.568;99.958;2023-12-20T09:13:06;100718.16;;;40.09;33.05
74230;BME280;62589;12.568;99.958;2023-12-20T09:15:33;100729.84;;;40.08;32.88
74230;BME280;62589;12.568;99.958;2023-12-20T09:18:00;100721.13;;;40.02;32.83
74230;BME280;62589;12.568;99.958;2023-12-20T09:20:26;100722.72;;;40.03;33.06
74230;BME280;62589;12.568;99.958;2023-12-20T09:22:53;100736.84;;;40.00;32.87
74230;BME280;62589;12.568;99.958;2023-12-20T09:25:19;100730.09;;;39.97;33.06
74230;BME280;62589;12.568;99.958;2023-12-20T09:27:46;100735.00;;;39.93;32.76
74230;BME280;62589;12.568;99.958;2023-12-20T09:30:12;100734.22;;;39.93;32.66
74230;BME280;62589;12.568;99.958;2023-12-20T09:32:39;100728.69;;;39.89;32.83
74230;BME280;62589;12.568;99.958;2023-12-20T09:35:05;100733.53;;;39.89;32.89
74230;BME280;62589;12.568;99.958;2023-12-20T09:37:33;100733.16;;;39.87;32.98
74230;BME280;62589;12.568;99.958;2023-12-20T09:40:00;100738.41;;;39.84;33.31
74230;BME280;62589;12.568;99.958;2023-12-20T09:42:47;100742.00;;;39.85;33.54
74230;BME280;62589;12.568;99.958;2023-12-20T09:45:15;100739.63;;;39.83;33.32
74230;BME280;62589;12.568;99.958;2023-12-20T09:47:45;100739.72;;;39.80;33.54
74230;BME280;62589;12.568;99.958;2023-12-20T09:50:12;100741.38;;;39.77;33.58
74230;BME280;62589;12.568;99.958;2023-12-20T09:52:39;100739.00;;;39.76;33.42
74230;BME280;62589;12.568;99.958;2023-12-20T09:55:07;100741.09;;;39.72;33.08
74230;BME280;62589;12.568;99.958;2023-12-20T09:57:34;100741.09;;;39.72;33.09
74230;BME280;62589;12.568;99.958;2023-12-20T10:00:00;100755.25;;;39.68;33.50
74230;BME280;62589;12.568;99.958;2023-12-20T10:02:31;100747.34;;;39.63;33.45
74230;BME280;62589;12.568;99.958;2023-12-20T10:04:58;100754.97;;;39.63;33.79
74230;BME280;62589;12.568;99.958;2023-12-20T10:07:25;100757.06;;;39.59;33.43
74230;BME280;62589;12.568;99.958;2023-12-20T10:09:54;100761.97;;;39.55;33.96
74230;BME280;62589;12.568;99.958;2023-12-20T10:12:22;100760.41;;;39.54;33.99
74230;BME280;62589;12.568;99.958;2023-12-20T10:14:48;100752.50;;;39.48;34.46
74230;BME280;62589;12.568;99.958;2023-12-20T10:17:15;100756.19;;;39.45;34.91
74230;BME280;62589;12.568;99.958;2023-12-20T10:19:43;100758.59;;;39.43;35.38
74230;BME280;62589;12.568;99.958;2023-12-20T10:22:10;100762.28;;;39.40;35.39
74230;BME280;62589;12.568;99.958;2023-12-20T10:24:36;100765.09;;;39.40;35.83
74230;BME280;62589;12.568;99.958;2023-12-20T10:27:05;100776.03;;;39.35;35.54
74230;BME280;62589;12.568;99.958;2023-12-20T10:29:33;100779.72;;;39.32;35.69
74230;BME280;62589;12.568;99.958;2023-12-20T10:32:02;100789.47;;;39.27;35.51
74230;BME280;62589;12.568;99.958;2023-12-20T10:34:46;100783.13;;;39.23;35.80
74230;BME280;62589;12.568;99.958;2023-12-20T10:37:12;100785.63;;;39.17;35.85
74230;BME280;62589;12.568;99.958;2023-12-20T10:39:39;100788.06;;;39.15;36.38
74230;BME280;62589;12.568;99.958;2023-12-20T10:42:06;100791.38;;;39.10;36.35
74230;BME280;62589;12.568;99.958;2023-12-20T10:44:33;100791.47;;;39.07;36.43
74230;BME280;62589;12.568;99.958;2023-12-20T10:47:00;100793.13;;;39.04;36.77
74230;BME280;62589;12.568;99.958;2023-12-20T10:49:27;100789.19;;;38.98;36.90
74230;BME280;62589;12.568;99.958;2023-12-20T10:51:54;100797.69;;;38.95;36.81
74230;BME280;62589;12.568;99.958;2023-12-20T10:54:23;100804.16;;;38.92;36.98
74230;BME280;62589;12.568;99.958;2023-12-20T10:56:52;100803.88;;;38.86;37.22
74230;BME280;62589;12.568;99.958;2023-12-20T10:59:20;100804.75;;;38.83;37.31
74230;BME280;62589;12.568;99.958;2023-12-20T11:01:48;100806.03;;;38.78;37.51
74230;BME280;62589;12.568;99.958;2023-12-20T11:04:22;100804.50;;;38.74;37.70
74230;BME280;62589;12.568;99.958;2023-12-20T11:07:04;100803.81;;;38.66;37.68
74230;BME280;62589;12.568;99.958;2023-12-20T11:09:38;100806.72;;;38.63;37.53
74230;BME280;62589;12.568;99.958;2023-12-20T11:12:24;100812.81;;;38.58;37.85
74230;BME280;62589;12.568;99.958;2023-12-20T11:14:56;100814.06;;;38.53;38.26
74230;BME280;62589;12.568;99.958;2023-12-20T11:17:23;100814.13;;;38.49;38.02
74230;BME280;62589;12.568;99.958;2023-12-20T11:20:08;100826.13;;;38.50;38.55
74230;BME280;62589;12.568;99.958;2023-12-20T11:22:36;100816.69;;;38.40;39.04
74230;BME280;62589;12.568;99.958;2023-12-20T11:25:09;100825.22;;;38.33;38.65
74230;BME280;62589;12.568;99.958;2023-12-20T11:27:40;100826.53;;;38.25;39.19
74230;BME280;62589;12.568;99.958;2023-12-20T11:30:07;100826.63;;;38.22;39.23
74230;BME280;62589;12.568;99.958;2023-12-20T11:32:36;100834.28;;;38.17;39.52
74230;BME280;62589;12.568;99.958;2023-12-20T11:35:22;100835.88;;;38.19;39.37
74230;BME280;62589;12.568;99.958;2023-12-20T11:37:51;100842.81;;;38.10;39.61
74230;BME280;62589;12.568;99.958;2023-12-20T11:40:18;100845.25;;;38.05;39.74
74230;BME280;62589;12.568;99.958;2023-12-20T11:42:48;100847.72;;;38.03;39.88
74230;BME280;62589;12.568;99.958;2023-12-20T11:45:18;100843.38;;;37.98;40.07
74230;BME280;62589;12.568;99.958;2023-12-20T11:47:49;100851.81;;;37.95;39.67
74230;BME280;62589;12.568;99.958;2023-12-20T11:50:17;100861.91;;;37.89;39.96
74230;BME280;62589;12.568;99.958;2023-12-20T11:52:44;100859.94;;;37.86;40.33
74230;BME280;62589;12.568;99.958;2023-12-20T11:55:11;100871.16;;;37.86;40.12
74230;BME280;62589;12.568;99.958;2023-12-20T11:57:38;100862.38;;;37.83;39.86
74230;BME280;62589;12.568;99.958;2023-12-20T12:00:05;100860.84;;;37.79;39.48
74230;BME280;62589;12.568;99.958;2023-12-20T12:02:32;100869.69;;;37.77;40.22
74230;BME280;62589;12.568;99.958;2023-12-20T12:04:59;100870.94;;;37.73;40.20
74230;BME280;62589;12.568;99.958;2023-12-20T12:07:26;100869.75;;;37.70;40.03
74230;BME280;62589;12.568;99.958;2023-12-20T12:09:52;100874.19;;;37.68;39.97
74230;BME280;62589;12.568;99.958;2023-12-20T12:12:19;100874.22;;;37.64;40.35
74230;BME280;62589;12.568;99.958;2023-12-20T12:14:46;100885.41;;;37.64;40.61
74230;BME280;62589;12.568;99.958;2023-12-20T12:17:13;100885.03;;;37.62;40.55
74230;BME280;62589;12.568;99.958;2023-12-20T12:19:40;100889.91;;;37.58;40.29
74230;BME280;62589;12.568;99.958;2023-12-20T12:22:08;100901.94;;;37.55;40.72
74230;BME280;62589;12.568;99.958;2023-12-20T12:24:52;100899.16;;;37.55;40.43
74230;BME280;62589;12.568;99.958;2023-12-20T12:27:20;100910.38;;;37.52;40.34
74230;BME280;62589;12.568;99.958;2023-12-20T12:30:02;100913.97;;;37.52;40.82
74230;BME280;62589;12.568;99.958;2023-12-20T12:32:29;100914.81;;;37.49;40.98
74230;BME280;62589;12.568;99.958;2023-12-20T12:34:56;100920.03;;;37.47;40.92
74230;BME280;62589;12.568;99.958;2023-12-20T12:37:22;100924.47;;;37.44;41.26
74230;BME280;62589;12.568;99.958;2023-12-20T12:39:52;100921.72;;;37.41;41.52